createdAt,value
2023-02-14T00:00:02.208Z,91.09
2023-02-14T00:02:30.099Z,90.46
2023-02-14T00:04:57.736Z,90.41
2023-02-14T00:07:25.345Z,90.80
2023-02-14T00:09:52.942Z,90.32
2023-02-14T00:12:20.856Z,89.68
2023-02-14T00:15:08.446Z,89.95
2023-02-14T00:17:36.508Z,89.93
2023-02-14T00:20:05.021Z,90.08
2023-02-14T00:22:32.668Z,90.65
2023-02-14T00:25:00.466Z,91.00
2023-02-14T00:27:28.059Z,91.19
2023-02-14T00:30:03.084Z,90.60
2023-02-14T00:32:30.737Z,90.85
2023-02-14T00:34:58.370Z,90.62
2023-02-14T00:37:26.017Z,90.68
2023-02-14T00:39:53.745Z,90.48
2023-02-14T00:42:22.172Z,90.34
2023-02-14T01:15:10.048Z,91.11
2023-02-14T01:41:30.240Z,90.36
2023-02-14T01:44:00.510Z,90.11
2023-02-14T01:46:29.918Z,90.09
2023-02-14T01:49:01.172Z,90.08
2023-02-14T01:51:29.624Z,90.25
2023-02-14T01:53:58.026Z,90.06
2023-02-14T01:56:31.442Z,89.91
2023-02-14T01:59:01.463Z,90.07
2023-02-14T02:01:30.137Z,89.84
2023-02-14T02:04:01.164Z,89.74
2023-02-14T02:06:31.607Z,89.37
2023-02-14T02:09:06.344Z,89.72
2023-02-14T02:11:35.440Z,89.89
2023-02-14T02:14:03.372Z,89.60
2023-02-14T02:16:47.193Z,90.25
2023-02-14T02:19:52.464Z,90.03
2023-02-14T02:31:39.327Z,89.25
2023-02-14T02:34:43.222Z,90.12
2023-02-14T02:37:24.708Z,89.26
2023-02-14T02:40:06.957Z,89.65
2023-02-14T03:03:23.420Z,90.84
2023-02-14T03:05:51.235Z,90.51
2023-02-14T03:08:18.949Z,90.63
2023-02-14T03:10:46.675Z,90.92
2023-02-14T03:13:31.979Z,90.88
2023-02-14T03:16:52.365Z,90.42
2023-02-14T03:39:13.973Z,90.77
2023-02-14T03:41:45.367Z,90.63
2023-02-14T03:44:15.055Z,90.76
2023-02-14T03:46:46.963Z,90.16
2023-02-14T03:49:19.292Z,90.65
2023-02-14T03:51:49.800Z,90.61
2023-02-14T03:54:19.841Z,90.29
2023-02-14T03:56:49.814Z,90.39
2023-02-14T03:59:19.749Z,90.46
2023-02-14T04:01:50.567Z,89.91
2023-02-14T04:04:21.577Z,89.98
2023-02-14T04:06:49.748Z,89.94
2023-02-14T04:09:18.784Z,89.77
2023-02-14T04:11:46.469Z,90.17
2023-02-14T04:14:14.229Z,89.89
2023-02-14T04:16:55.652Z,90.22
2023-02-14T04:19:25.932Z,89.82
2023-02-14T04:21:54.113Z,89.80
2023-02-14T04:24:23.107Z,89.83
2023-02-14T04:27:09.839Z,90.42
2023-02-14T04:29:38.788Z,90.30
2023-02-14T04:32:08.356Z,90.62
2023-02-14T04:34:36.217Z,90.61
2023-02-14T04:37:03.759Z,90.22
2023-02-14T04:39:33.059Z,90.25
2023-02-14T04:42:00.582Z,90.50
2023-02-14T04:44:28.340Z,90.52
2023-02-14T04:46:56.222Z,90.76
2023-02-14T04:49:23.962Z,90.74
2023-02-14T04:54:36.877Z,90.83
2023-02-14T04:57:04.529Z,90.31
2023-02-14T04:59:32.380Z,90.58
2023-02-14T05:02:00.242Z,90.36
2023-02-14T05:04:31.786Z,90.51
2023-02-14T05:06:59.617Z,90.10
2023-02-14T05:09:27.335Z,90.26
2023-02-14T05:11:56.387Z,89.95
2023-02-14T05:14:24.189Z,89.61
2023-02-14T05:16:51.945Z,89.62
2023-02-14T05:19:19.560Z,90.06
2023-02-14T05:21:47.375Z,89.95
2023-02-14T05:24:14.939Z,90.08
2023-02-14T05:26:42.500Z,90.31
2023-02-14T05:29:11.454Z,90.19
2023-02-14T05:31:39.267Z,90.14
2023-02-14T05:34:07.067Z,90.67
2023-02-14T05:36:34.688Z,89.74
2023-02-14T05:39:03.589Z,90.34
2023-02-14T05:41:31.225Z,90.71
2023-02-14T05:43:58.837Z,90.31
2023-02-14T05:46:27.824Z,90.08
2023-02-14T05:48:55.445Z,90.41
2023-02-14T05:51:22.964Z,89.64
2023-02-14T05:53:50.611Z,90.17
2023-02-14T05:56:18.268Z,89.81
2023-02-14T05:58:45.818Z,89.77
2023-02-14T06:01:13.396Z,89.39
2023-02-14T06:03:42.283Z,89.82
2023-02-14T06:06:16.011Z,89.76
2023-02-14T06:08:44.029Z,90.15
2023-02-14T06:11:11.523Z,90.03
2023-02-14T06:13:43.020Z,90.40
2023-02-14T06:16:15.783Z,89.87
2023-02-14T06:18:48.021Z,89.71
2023-02-14T06:23:54.833Z,90.16
2023-02-14T06:26:36.572Z,89.61
2023-02-14T06:34:57.627Z,88.88
2023-02-14T06:43:29.361Z,89.80
2023-02-14T06:46:00.464Z,89.71
2023-02-14T06:48:31.274Z,89.89
2023-02-14T06:51:03.523Z,90.02
2023-02-14T06:53:34.119Z,89.86
2023-02-14T06:56:01.946Z,90.12
2023-02-14T06:58:34.853Z,89.84
2023-02-14T07:01:07.120Z,89.70
2023-02-14T07:03:38.472Z,89.97
2023-02-14T07:06:09.762Z,90.03
2023-02-14T07:08:39.011Z,90.19
2023-02-14T07:11:08.307Z,90.27
2023-02-14T07:13:37.674Z,90.35
2023-02-14T07:16:07.450Z,90.15
2023-02-14T07:18:35.671Z,90.18
2023-02-14T07:21:03.982Z,90.02
2023-02-14T07:23:33.139Z,90.37
2023-02-14T07:26:01.043Z,89.97
2023-02-14T07:28:30.328Z,90.16
2023-02-14T07:31:00.789Z,90.27
2023-02-14T07:33:28.844Z,89.93
2023-02-14T07:35:56.390Z,90.08
2023-02-14T07:38:24.477Z,89.69
2023-02-14T07:40:55.576Z,89.85
2023-02-14T07:43:23.137Z,89.58
2023-02-14T07:45:50.719Z,89.93
2023-02-14T07:48:18.478Z,90.03
2023-02-14T07:50:46.003Z,89.75
2023-02-14T07:53:13.664Z,89.29
2023-02-14T07:55:42.413Z,89.87
2023-02-14T07:58:12.581Z,89.95
2023-02-14T08:00:43.310Z,89.88
2023-02-14T08:03:11.362Z,90.19
2023-02-14T08:05:39.117Z,90.21
2023-02-14T08:08:06.819Z,90.55
2023-02-14T08:10:34.551Z,90.93
2023-02-14T08:13:03.370Z,91.29
2023-02-14T08:15:52.606Z,91.25
2023-02-14T08:18:20.717Z,91.29
2023-02-14T08:20:49.886Z,92.33
2023-02-14T08:23:18.351Z,93.26
2023-02-14T08:25:46.181Z,94.22
2023-02-14T08:28:18.639Z,94.71
2023-02-14T08:30:48.457Z,95.18
2023-02-14T08:33:16.023Z,94.93
2023-02-14T08:35:43.596Z,94.88
2023-02-14T08:38:11.927Z,94.32
2023-02-14T08:40:39.614Z,93.42
2023-02-14T08:43:07.901Z,93.30
2023-02-14T08:45:35.525Z,93.10
2023-02-14T08:48:06.449Z,92.42
2023-02-14T08:50:34.546Z,92.54
2023-02-14T08:53:02.291Z,93.50
2023-02-14T08:55:29.875Z,92.33
2023-02-14T08:57:58.278Z,91.60
2023-02-14T09:00:26.165Z,92.68
2023-02-14T09:02:54.461Z,92.70
2023-02-14T09:05:24.938Z,91.89
2023-02-14T09:07:52.599Z,92.54
2023-02-14T09:10:20.254Z,92.54
2023-02-14T09:12:47.892Z,92.55
2023-02-14T09:15:15.496Z,93.21
2023-02-14T09:17:43.244Z,92.42
2023-02-14T09:20:12.554Z,92.04
2023-02-14T09:22:42.391Z,92.47
2023-02-14T09:25:10.477Z,92.82
2023-02-14T09:27:38.264Z,92.65
2023-02-14T09:30:06.918Z,91.83
2023-02-14T09:32:34.945Z,91.35
2023-02-14T09:35:05.373Z,91.55
2023-02-14T09:37:32.992Z,92.15
2023-02-14T09:40:02.556Z,91.53
2023-02-14T09:42:50.069Z,92.30
2023-02-14T09:45:20.504Z,92.54
2023-02-14T09:47:51.149Z,91.86
2023-02-14T09:50:24.161Z,91.63
2023-02-14T09:52:55.339Z,92.06
2023-02-14T09:55:24.567Z,92.95
2023-02-14T09:58:07.344Z,91.71
2023-02-14T10:00:39.448Z,91.83
2023-02-14T10:03:31.276Z,91.60
2023-02-14T10:06:03.131Z,91.92
2023-02-14T10:08:42.211Z,93.20
2023-02-14T10:11:13.147Z,93.38
2023-02-14T10:13:43.308Z,93.43
2023-02-14T10:16:16.389Z,93.38
2023-02-14T10:18:47.227Z,93.91
2023-02-14T10:21:23.247Z,93.47
2023-02-14T10:23:54.140Z,93.59
2023-02-14T10:26:29.331Z,92.96
2023-02-14T10:28:57.072Z,92.46
2023-02-14T10:31:26.392Z,92.75
2023-02-14T10:33:59.053Z,92.13
2023-02-14T10:36:42.799Z,92.35
2023-02-14T10:39:23.055Z,91.88
2023-02-14T10:41:54.411Z,92.79
2023-02-14T10:44:31.649Z,91.56
2023-02-14T10:47:03.912Z,92.25
2023-02-14T10:49:40.686Z,91.30
2023-02-14T10:52:18.657Z,91.45
2023-02-14T10:54:52.067Z,91.97
2023-02-14T10:57:25.247Z,92.09
2023-02-14T10:59:56.041Z,92.50
2023-02-14T11:02:25.629Z,91.93
2023-02-14T11:04:53.530Z,91.85
2023-02-14T11:07:22.935Z,92.38
2023-02-14T11:09:50.815Z,92.13
2023-02-14T11:12:39.219Z,91.29
2023-02-14T11:15:12.801Z,92.35
2023-02-14T11:17:40.344Z,91.91
2023-02-14T11:20:25.368Z,92.60
2023-02-14T11:22:53.420Z,91.13
2023-02-14T11:25:23.362Z,91.13
2023-02-14T11:27:57.299Z,90.39
2023-02-14T11:30:28.968Z,92.36
2023-02-14T11:32:57.000Z,92.69
2023-02-14T11:35:27.629Z,92.03
2023-02-14T11:37:56.918Z,92.64
2023-02-14T11:40:29.537Z,92.07
2023-02-14T11:43:13.324Z,92.59
2023-02-14T11:45:43.462Z,91.75
2023-02-14T11:48:22.325Z,90.89
2023-02-14T11:50:57.836Z,90.74
2023-02-14T11:53:27.667Z,90.27
2023-02-14T11:55:56.969Z,90.11
2023-02-14T11:58:38.543Z,90.42
2023-02-14T12:01:06.517Z,90.41
2023-02-14T12:03:39.726Z,91.14
2023-02-14T12:06:07.635Z,89.71
2023-02-14T12:08:38.914Z,89.40
2023-02-14T12:11:20.398Z,89.41
2023-02-14T12:13:55.269Z,88.55
2023-02-14T12:16:28.288Z,89.17
2023-02-14T12:18:58.555Z,89.52
2023-02-14T12:21:37.958Z,88.70
2023-02-14T12:24:14.794Z,88.86
2023-02-14T12:26:47.768Z,88.58
2023-02-14T12:29:22.155Z,89.54
2023-02-14T12:31:50.993Z,89.15
2023-02-14T12:34:19.956Z,88.67
2023-02-14T12:37:00.294Z,89.52
2023-02-14T12:39:36.538Z,89.77
2023-02-14T12:42:11.463Z,89.50
2023-02-14T12:44:48.330Z,89.81
2023-02-14T12:47:22.059Z,88.98
2023-02-14T12:50:08.268Z,88.73
2023-02-14T12:52:48.859Z,88.59
2023-02-14T12:55:28.410Z,89.12
2023-02-14T12:57:59.999Z,88.97
2023-02-14T13:00:35.704Z,88.60
2023-02-14T13:03:37.349Z,88.44
2023-02-14T13:06:09.348Z,88.54
2023-02-14T13:08:49.112Z,87.78
2023-02-14T13:11:23.496Z,88.17
2023-02-14T13:14:03.746Z,88.14
2023-02-14T13:16:37.650Z,88.60
2023-02-14T13:19:07.350Z,88.81
2023-02-14T13:21:37.412Z,88.28
2023-02-14T13:24:14.430Z,88.37
2023-02-14T13:26:45.184Z,88.78
2023-02-14T13:29:14.876Z,90.06
2023-02-14T13:31:44.088Z,89.40
2023-02-14T13:34:20.899Z,89.60
2023-02-14T13:36:48.892Z,89.40
2023-02-14T13:39:23.904Z,89.39
2023-02-14T13:41:51.444Z,89.71
2023-02-14T13:44:43.621Z,88.72
2023-02-14T13:47:19.338Z,88.43
2023-02-14T13:49:50.248Z,89.75
2023-02-14T13:52:46.400Z,90.21
2023-02-14T13:55:17.666Z,90.45
2023-02-14T13:57:45.564Z,89.96
2023-02-14T14:00:48.821Z,89.75
2023-02-14T14:03:53.749Z,88.89
2023-02-14T14:06:22.704Z,89.62
2023-02-14T14:08:57.003Z,89.39
2023-02-14T14:11:58.932Z,89.69
2023-02-14T14:14:39.670Z,89.21
2023-02-14T14:17:26.196Z,89.38
2023-02-14T14:19:54.085Z,89.40
2023-02-14T14:22:23.027Z,89.42
2023-02-14T14:24:55.904Z,88.86
2023-02-14T14:27:25.171Z,89.10
2023-02-14T14:29:55.037Z,88.42
2023-02-14T14:32:28.263Z,88.99
2023-02-14T14:34:59.891Z,89.87
2023-02-14T14:37:30.381Z,89.92
2023-02-14T14:39:59.942Z,89.33
2023-02-14T14:42:30.543Z,90.20
2023-02-14T14:45:00.104Z,90.20
2023-02-14T14:47:29.733Z,90.29
2023-02-14T14:50:00.872Z,89.16
2023-02-14T14:52:36.373Z,89.32
2023-02-14T14:55:06.876Z,88.40
2023-02-14T14:57:36.356Z,89.01
2023-02-14T15:00:10.503Z,88.75
2023-02-14T15:02:38.066Z,88.76
2023-02-14T15:05:15.211Z,89.44
2023-02-14T15:07:44.145Z,89.41
2023-02-14T15:10:23.198Z,89.00
2023-02-14T15:13:09.349Z,89.44
2023-02-14T15:15:37.148Z,89.84
2023-02-14T15:18:06.750Z,89.53
2023-02-14T15:20:35.168Z,88.44
2023-02-14T15:23:05.351Z,89.22
2023-02-14T15:25:34.801Z,89.66
2023-02-14T15:28:02.732Z,89.42
2023-02-14T15:30:34.188Z,89.88
2023-02-14T15:33:03.377Z,89.94
2023-02-14T15:35:32.968Z,89.55
2023-02-14T15:38:04.030Z,89.49
2023-02-14T15:40:35.006Z,89.26
2023-02-14T15:43:15.395Z,89.17
2023-02-14T15:45:44.841Z,89.11
2023-02-14T15:48:15.811Z,89.76
2023-02-14T15:50:46.613Z,89.75
2023-02-14T15:53:30.481Z,89.95
2023-02-14T15:56:05.700Z,90.43
2023-02-14T15:58:35.411Z,90.16
2023-02-14T16:01:04.068Z,89.82
2023-02-14T16:03:35.792Z,89.74
2023-02-14T16:06:03.532Z,89.63
2023-02-14T16:08:32.841Z,89.25
2023-02-14T16:11:03.226Z,89.44
2023-02-14T16:13:34.437Z,89.23
2023-02-14T16:16:03.348Z,89.34
2023-02-14T16:18:36.607Z,89.78
2023-02-14T16:21:16.373Z,89.62
2023-02-14T16:23:45.094Z,88.75
2023-02-14T16:26:13.284Z,88.49
2023-02-14T16:28:43.458Z,88.94
2023-02-14T16:31:16.154Z,88.96
2023-02-14T16:33:43.748Z,89.06
2023-02-14T16:36:19.474Z,88.93
2023-02-14T16:38:47.223Z,88.21
2023-02-14T16:41:19.865Z,87.71
2023-02-14T16:43:49.948Z,87.81
2023-02-14T16:46:19.155Z,87.78
2023-02-14T16:48:46.650Z,87.28
2023-02-14T16:51:14.727Z,87.11
2023-02-14T16:53:43.289Z,87.27
2023-02-14T16:56:16.466Z,87.72
2023-02-14T16:58:44.218Z,87.70
2023-02-14T17:01:13.128Z,88.36
2023-02-14T17:03:42.635Z,89.08
2023-02-14T17:06:13.923Z,89.78
2023-02-14T17:08:42.490Z,90.90
2023-02-14T17:11:11.018Z,91.76
2023-02-14T17:13:40.968Z,91.97
2023-02-14T17:16:10.957Z,92.00
2023-02-14T17:18:41.477Z,92.11
2023-02-14T17:21:08.861Z,92.62
2023-02-14T17:23:36.378Z,92.54
2023-02-14T17:26:06.447Z,93.25
2023-02-14T17:28:34.142Z,93.22
2023-02-14T17:31:01.751Z,92.91
2023-02-14T17:33:30.511Z,93.36
2023-02-14T17:36:05.188Z,92.94
2023-02-14T17:38:32.701Z,92.81
2023-02-14T17:41:00.500Z,92.34
2023-02-14T17:43:28.099Z,92.52
2023-02-14T17:45:56.653Z,91.90
2023-02-14T17:48:24.113Z,92.03
2023-02-14T17:50:51.606Z,92.48
2023-02-14T17:53:20.394Z,91.93
2023-02-14T17:55:47.934Z,92.15
2023-02-14T17:58:15.399Z,91.83
2023-02-14T18:00:43.468Z,92.43
2023-02-14T18:03:10.955Z,92.07
2023-02-14T18:05:38.375Z,92.47
2023-02-14T18:08:06.047Z,92.61
2023-02-14T18:10:34.854Z,92.47
2023-02-14T18:13:02.247Z,92.95
2023-02-14T18:15:29.800Z,92.51
2023-02-14T18:17:57.294Z,93.23
2023-02-14T18:20:24.789Z,93.32
2023-02-14T18:22:52.219Z,93.44
2023-02-14T18:25:19.753Z,93.98
2023-02-14T18:27:48.643Z,94.33
2023-02-14T18:30:16.479Z,94.38
2023-02-14T18:32:44.344Z,94.43
2023-02-14T18:35:11.851Z,94.73
2023-02-14T18:37:39.268Z,94.48
2023-02-14T18:40:09.252Z,94.48
2023-02-14T18:42:38.191Z,94.61
2023-02-14T18:45:08.052Z,95.09
2023-02-14T18:47:35.580Z,94.68
2023-02-14T18:50:03.214Z,95.32
2023-02-14T18:52:30.722Z,95.35
2023-02-14T18:54:59.298Z,95.22
2023-02-14T18:57:26.821Z,95.45
2023-02-14T18:59:54.451Z,95.76
2023-02-14T19:02:23.330Z,94.85
2023-02-14T19:04:50.861Z,95.36
2023-02-14T19:07:18.620Z,95.24
2023-02-14T19:09:46.276Z,95.05
2023-02-14T19:12:13.796Z,95.19
2023-02-14T19:14:41.357Z,95.91
2023-02-14T19:17:08.885Z,96.15
2023-02-14T19:19:37.718Z,95.91
2023-02-14T19:22:05.102Z,96.46
2023-02-14T19:24:32.603Z,96.63
2023-02-14T19:27:00.104Z,96.07
2023-02-14T19:29:27.593Z,95.78
2023-02-14T19:31:55.908Z,95.50
2023-02-14T19:34:27.210Z,95.66
2023-02-14T19:36:58.978Z,95.54
2023-02-14T19:39:29.371Z,94.40
2023-02-14T19:41:57.182Z,94.87
2023-02-14T19:44:25.811Z,94.82
2023-02-14T19:46:54.259Z,95.43
2023-02-14T19:49:21.964Z,97.07
2023-02-14T19:51:51.107Z,96.90
2023-02-14T19:54:21.803Z,97.14
2023-02-14T19:56:49.522Z,96.89
2023-02-14T19:59:20.034Z,96.66
2023-02-14T20:01:49.296Z,95.64
2023-02-14T20:04:18.639Z,94.88
2023-02-14T20:06:46.699Z,95.31
2023-02-14T20:09:14.595Z,96.64
2023-02-14T20:11:49.969Z,96.78
2023-02-14T20:14:18.967Z,96.67
2023-02-14T20:16:47.155Z,96.39
2023-02-14T20:19:17.397Z,95.64
2023-02-14T20:21:46.202Z,96.31
2023-02-14T20:24:16.833Z,97.24
2023-02-14T20:26:47.312Z,98.28
2023-02-14T20:29:16.053Z,98.66
2023-02-14T20:31:46.041Z,99.42
2023-02-14T20:34:13.875Z,99.50
2023-02-14T20:36:42.302Z,99.46
2023-02-14T20:39:11.317Z,99.78
2023-02-14T20:41:38.943Z,98.86
2023-02-14T20:44:16.857Z,99.93
2023-02-14T20:46:44.794Z,99.59
2023-02-14T20:49:12.523Z,100.00
2023-02-14T20:51:40.623Z,100.00
2023-02-14T20:54:08.159Z,100.00
2023-02-14T20:56:35.819Z,100.00
2023-02-14T20:59:03.863Z,100.00
2023-02-14T21:01:33.247Z,99.92
2023-02-14T21:04:00.804Z,99.82
2023-02-14T21:06:30.272Z,99.46
2023-02-14T21:08:58.557Z,99.73
2023-02-14T21:11:26.824Z,100.00
2023-02-14T21:13:55.044Z,100.00
2023-02-14T21:16:22.623Z,100.00
2023-02-14T21:18:55.172Z,100.00
2023-02-14T21:21:24.444Z,100.00
2023-02-14T21:23:52.571Z,100.00
2023-02-14T21:26:21.168Z,100.00
2023-02-14T21:28:49.131Z,100.00
2023-02-14T21:31:20.581Z,99.98
2023-02-14T21:33:51.833Z,99.93
2023-02-14T21:36:20.572Z,99.20
2023-02-14T21:38:48.472Z,98.52
2023-02-14T21:41:17.415Z,98.56
2023-02-14T21:43:46.817Z,98.48
2023-02-14T21:46:16.397Z,98.42
2023-02-14T21:49:01.770Z,98.66
2023-02-14T21:51:31.066Z,99.59
2023-02-14T21:53:59.725Z,99.10
2023-02-14T21:56:28.092Z,98.96
2023-02-14T21:58:56.628Z,98.35
2023-02-14T22:01:25.864Z,98.80
2023-02-14T22:03:53.907Z,98.84
2023-02-14T22:06:22.549Z,98.85
2023-02-14T22:08:54.139Z,98.50
2023-02-14T22:11:22.382Z,98.74
2023-02-14T22:13:53.466Z,98.62
2023-02-14T22:16:22.826Z,99.37
2023-02-14T22:18:50.887Z,99.44
2023-02-14T22:21:20.606Z,99.95
2023-02-14T22:26:38.623Z,99.59
2023-02-14T22:29:06.537Z,100.00
2023-02-14T22:31:35.635Z,100.00
2023-02-14T22:34:04.524Z,100.00
2023-02-14T22:36:32.155Z,100.00
2023-02-14T22:38:59.702Z,99.72
2023-02-14T22:41:27.371Z,99.50
2023-02-14T22:43:57.308Z,99.12
2023-02-14T22:46:26.489Z,99.59
2023-02-14T22:48:54.499Z,99.65
2023-02-14T22:51:24.228Z,99.35
2023-02-14T22:53:53.615Z,99.64
2023-02-14T22:56:23.450Z,99.27
2023-02-14T22:58:54.540Z,98.52
2023-02-14T23:01:24.038Z,97.93
2023-02-14T23:03:53.886Z,97.30
2023-02-14T23:06:22.866Z,97.22
2023-02-14T23:08:50.662Z,97.08
2023-02-14T23:11:19.736Z,97.05
2023-02-14T23:14:05.238Z,96.91
2023-02-14T23:16:51.940Z,96.91
2023-02-14T23:19:38.428Z,96.93
2023-02-14T23:22:08.304Z,96.11
2023-02-14T23:24:35.856Z,96.35
2023-02-14T23:27:03.479Z,96.54
2023-02-14T23:29:31.740Z,96.45
2023-02-14T23:32:00.997Z,96.11
2023-02-14T23:34:30.622Z,96.66
2023-02-14T23:36:58.055Z,96.89
2023-02-14T23:39:25.878Z,96.32
2023-02-14T23:41:53.665Z,95.85
2023-02-14T23:44:23.380Z,96.61
2023-02-14T23:46:52.439Z,96.37
2023-02-14T23:49:21.731Z,95.83
2023-02-14T23:51:51.855Z,95.39
2023-02-14T23:54:20.024Z,94.87
2023-02-14T23:56:47.802Z,94.20
2023-02-14T23:59:16.153Z,95.45
